Terminal Aerodrome Forecast
Issued by NWS

Home | Current Version | Previous Version | Text Only | Print | Product List | Glossary On
Versions: 1 2 3 4 5 6 7 8 9 10 11 12 13 14
000
FTUS46 KSGX 301958 AAA
TAFCRQ
TAF AMD
KCRQ 301958Z 3020/3118 24012G18KT P6SM FEW010
      TEMPO 3022/3102 BKN010
     FM310200 25008KT P6SM BKN018
     FM310500 VRB05KT P6SM SCT020=

USA.gov is the U.S. government's official web portal to all federal, state and local government web resources and services.